sensor_id;sensor_type;location;lat;lon;timestamp;temperature;humidity
34776;DHT22;20989;52.566;13.346;2022-12-10T00:02:22;19.60;48.50
34776;DHT22;20989;52.566;13.346;2022-12-10T00:05:22;19.70;48.50
34776;DHT22;20989;52.566;13.346;2022-12-10T00:08:23;19.60;48.50
34776;DHT22;20989;52.566;13.346;2022-12-10T00:11:24;19.60;48.50
34776;DHT22;20989;52.566;13.346;2022-12-10T00:14:24;19.60;48.70
34776;DHT22;20989;52.566;13.346;2022-12-10T00:17:25;19.60;48.60
34776;DHT22;20989;52.566;13.346;2022-12-10T00:20:26;19.60;48.50
34776;DHT22;20989;52.566;13.346;2022-12-10T00:23:26;19.60;48.60
34776;DHT22;20989;52.566;13.346;2022-12-10T00:26:34;19.60;48.40
34776;DHT22;20989;52.566;13.346;2022-12-10T00:29:35;19.60;48.60
34776;DHT22;20989;52.566;13.346;2022-12-10T00:32:36;19.60;48.50
34776;DHT22;20989;52.566;13.346;2022-12-10T00:35:37;19.60;48.50
34776;DHT22;20989;52.566;13.346;2022-12-10T00:38:38;19.60;48.60
34776;DHT22;20989;52.566;13.346;2022-12-10T00:41:40;19.60;48.70
34776;DHT22;20989;52.566;13.346;2022-12-10T00:44:40;19.60;48.70
34776;DHT22;20989;52.566;13.346;2022-12-10T00:47:41;19.60;48.60
34776;DHT22;20989;52.566;13.346;2022-12-10T00:50:41;19.60;48.50
34776;DHT22;20989;52.566;13.346;2022-12-10T00:53:43;19.60;48.60
34776;DHT22;20989;52.566;13.346;2022-12-10T00:56:44;19.60;48.60
34776;DHT22;20989;52.566;13.346;2022-12-10T00:59:45;19.60;48.60
34776;DHT22;20989;52.566;13.346;2022-12-10T01:02:45;19.60;48.50
34776;DHT22;20989;52.566;13.346;2022-12-10T01:05:46;19.60;48.60
34776;DHT22;20989;52.566;13.346;2022-12-10T01:08:47;19.60;48.50
34776;DHT22;20989;52.566;13.346;2022-12-10T01:11:49;19.60;48.60
34776;DHT22;20989;52.566;13.346;2022-12-10T01:14:50;19.60;48.60
34776;DHT22;20989;52.566;13.346;2022-12-10T01:17:51;19.60;48.50
34776;DHT22;20989;52.566;13.346;2022-12-10T01:20:51;19.60;48.50
34776;DHT22;20989;52.566;13.346;2022-12-10T01:23:52;19.60;48.50
34776;DHT22;20989;52.566;13.346;2022-12-10T01:26:53;19.60;48.50
34776;DHT22;20989;52.566;13.346;2022-12-10T01:29:57;19.60;48.50
34776;DHT22;20989;52.566;13.346;2022-12-10T01:32:58;19.60;48.50
34776;DHT22;20989;52.566;13.346;2022-12-10T01:36:15;19.60;48.50
34776;DHT22;20989;52.566;13.346;2022-12-10T01:39:17;19.60;48.40
34776;DHT22;20989;52.566;13.346;2022-12-10T01:42:18;19.60;48.40
34776;DHT22;20989;52.566;13.346;2022-12-10T01:45:19;19.60;48.40
34776;DHT22;20989;52.566;13.346;2022-12-10T01:48:20;19.60;48.40
34776;DHT22;20989;52.566;13.346;2022-12-10T01:51:22;19.60;48.40
34776;DHT22;20989;52.566;13.346;2022-12-10T01:54:26;19.70;48.40
34776;DHT22;20989;52.566;13.346;2022-12-10T01:57:27;19.70;48.40
34776;DHT22;20989;52.566;13.346;2022-12-10T02:00:30;19.60;48.40
34776;DHT22;20989;52.566;13.346;2022-12-10T02:10:29;19.70;48.40
34776;DHT22;20989;52.566;13.346;2022-12-10T02:13:58;19.70;48.50
34776;DHT22;20989;52.566;13.346;2022-12-10T02:17:26;19.70;48.40
34776;DHT22;20989;52.566;13.346;2022-12-10T02:20:38;19.70;48.30
34776;DHT22;20989;52.566;13.346;2022-12-10T02:23:43;19.70;48.40
34776;DHT22;20989;52.566;13.346;2022-12-10T02:26:48;19.70;48.50
34776;DHT22;20989;52.566;13.346;2022-12-10T02:29:51;19.70;48.50
34776;DHT22;20989;52.566;13.346;2022-12-10T02:32:53;19.70;48.40
34776;DHT22;20989;52.566;13.346;2022-12-10T02:35:56;19.70;48.50
34776;DHT22;20989;52.566;13.346;2022-12-10T02:39:00;19.70;48.90
34776;DHT22;20989;52.566;13.346;2022-12-10T02:42:02;19.70;48.40
34776;DHT22;20989;52.566;13.346;2022-12-10T02:45:05;19.70;48.40
34776;DHT22;20989;52.566;13.346;2022-12-10T02:48:06;19.70;48.40
34776;DHT22;20989;52.566;13.346;2022-12-10T02:51:07;19.70;48.30
34776;DHT22;20989;52.566;13.346;2022-12-10T02:58:17;19.70;48.30
34776;DHT22;20989;52.566;13.346;2022-12-10T03:01:38;19.70;48.40
34776;DHT22;20989;52.566;13.346;2022-12-10T03:09:12;19.70;48.40
34776;DHT22;20989;52.566;13.346;2022-12-10T03:11:50;19.70;48.30
34776;DHT22;20989;52.566;13.346;2022-12-10T03:14:59;19.70;48.30
34776;DHT22;20989;52.566;13.346;2022-12-10T03:18:02;19.70;48.30
34776;DHT22;20989;52.566;13.346;2022-12-10T03:21:06;19.70;48.20
34776;DHT22;20989;52.566;13.346;2022-12-10T03:24:09;19.70;48.30
34776;DHT22;20989;52.566;13.346;2022-12-10T03:27:12;19.70;48.30
34776;DHT22;20989;52.566;13.346;2022-12-10T03:30:13;19.70;48.20
34776;DHT22;20989;52.566;13.346;2022-12-10T03:33:15;19.70;48.30
34776;DHT22;20989;52.566;13.346;2022-12-10T03:36:17;19.80;48.20
34776;DHT22;20989;52.566;13.346;2022-12-10T03:39:19;19.80;48.20
34776;DHT22;20989;52.566;13.346;2022-12-10T03:42:19;19.80;48.30
34776;DHT22;20989;52.566;13.346;2022-12-10T03:45:20;19.80;48.30
34776;DHT22;20989;52.566;13.346;2022-12-10T03:48:21;19.80;48.30
34776;DHT22;20989;52.566;13.346;2022-12-10T03:51:22;19.80;48.40
34776;DHT22;20989;52.566;13.346;2022-12-10T03:54:22;19.80;48.20
34776;DHT22;20989;52.566;13.346;2022-12-10T03:57:23;19.80;48.30
34776;DHT22;20989;52.566;13.346;2022-12-10T04:00:24;19.80;48.20
34776;DHT22;20989;52.566;13.346;2022-12-10T04:03:25;19.70;48.30
34776;DHT22;20989;52.566;13.346;2022-12-10T04:06:25;19.80;48.20
34776;DHT22;20989;52.566;13.346;2022-12-10T04:09:26;19.80;48.30
34776;DHT22;20989;52.566;13.346;2022-12-10T04:12:27;19.80;48.20
34776;DHT22;20989;52.566;13.346;2022-12-10T04:15:27;19.80;48.30
34776;DHT22;20989;52.566;13.346;2022-12-10T04:18:47;19.70;48.20
34776;DHT22;20989;52.566;13.346;2022-12-10T04:21:47;19.70;48.30
34776;DHT22;20989;52.566;13.346;2022-12-10T04:25:10;19.70;48.30
34776;DHT22;20989;52.566;13.346;2022-12-10T04:28:30;19.80;48.40
34776;DHT22;20989;52.566;13.346;2022-12-10T04:31:30;19.70;48.20
34776;DHT22;20989;52.566;13.346;2022-12-10T04:34:31;19.70;48.30
34776;DHT22;20989;52.566;13.346;2022-12-10T04:37:32;19.70;48.30
34776;DHT22;20989;52.566;13.346;2022-12-10T04:40:33;19.70;48.40
34776;DHT22;20989;52.566;13.346;2022-12-10T04:43:34;19.70;48.40
34776;DHT22;20989;52.566;13.346;2022-12-10T04:46:35;19.70;48.30
34776;DHT22;20989;52.566;13.346;2022-12-10T04:49:36;19.70;48.40
34776;DHT22;20989;52.566;13.346;2022-12-10T04:52:37;19.70;48.80
34776;DHT22;20989;52.566;13.346;2022-12-10T04:55:37;19.70;48.20
34776;DHT22;20989;52.566;13.346;2022-12-10T04:58:38;19.70;48.20
34776;DHT22;20989;52.566;13.346;2022-12-10T05:01:39;19.70;48.30
34776;DHT22;20989;52.566;13.346;2022-12-10T05:04:39;19.70;48.30
34776;DHT22;20989;52.566;13.346;2022-12-10T05:07:40;19.80;48.30
34776;DHT22;20989;52.566;13.346;2022-12-10T05:10:41;19.80;48.40
34776;DHT22;20989;52.566;13.346;2022-12-10T05:13:42;19.80;48.30
34776;DHT22;20989;52.566;13.346;2022-12-10T05:16:43;19.80;48.20
34776;DHT22;20989;52.566;13.346;2022-12-10T05:19:44;19.80;48.30
34776;DHT22;20989;52.566;13.346;2022-12-10T05:22:45;19.80;48.40
34776;DHT22;20989;52.566;13.346;2022-12-10T05:29:09;19.70;48.40
34776;DHT22;20989;52.566;13.346;2022-12-10T05:32:10;19.70;48.40
34776;DHT22;20989;52.566;13.346;2022-12-10T05:35:11;19.70;48.50
34776;DHT22;20989;52.566;13.346;2022-12-10T05:38:11;19.70;48.50
34776;DHT22;20989;52.566;13.346;2022-12-10T05:41:15;19.70;48.50
34776;DHT22;20989;52.566;13.346;2022-12-10T05:44:15;19.70;48.50
34776;DHT22;20989;52.566;13.346;2022-12-10T05:47:16;19.70;48.50
34776;DHT22;20989;52.566;13.346;2022-12-10T05:50:17;19.70;48.40
34776;DHT22;20989;52.566;13.346;2022-12-10T05:53:18;19.70;48.40
34776;DHT22;20989;52.566;13.346;2022-12-10T05:56:21;19.70;48.40
34776;DHT22;20989;52.566;13.346;2022-12-10T05:59:22;19.70;48.60
34776;DHT22;20989;52.566;13.346;2022-12-10T06:02:23;19.70;48.50
34776;DHT22;20989;52.566;13.346;2022-12-10T06:05:23;19.70;48.50
34776;DHT22;20989;52.566;13.346;2022-12-10T06:08:24;19.70;48.60
34776;DHT22;20989;52.566;13.346;2022-12-10T06:11:25;19.70;48.50
34776;DHT22;20989;52.566;13.346;2022-12-10T06:14:26;19.60;48.40
34776;DHT22;20989;52.566;13.346;2022-12-10T06:17:27;19.70;48.60
34776;DHT22;20989;52.566;13.346;2022-12-10T06:20:28;19.60;48.40
34776;DHT22;20989;52.566;13.346;2022-12-10T06:23:28;19.60;48.50
34776;DHT22;20989;52.566;13.346;2022-12-10T06:26:29;19.60;48.40
34776;DHT22;20989;52.566;13.346;2022-12-10T06:29:29;19.60;48.40
34776;DHT22;20989;52.566;13.346;2022-12-10T06:32:30;19.60;48.60
34776;DHT22;20989;52.566;13.346;2022-12-10T06:35:31;19.60;48.40
34776;DHT22;20989;52.566;13.346;2022-12-10T06:38:32;19.60;48.40
34776;DHT22;20989;52.566;13.346;2022-12-10T06:41:33;19.60;48.50
34776;DHT22;20989;52.566;13.346;2022-12-10T06:44:34;19.60;48.50
34776;DHT22;20989;52.566;13.346;2022-12-10T06:47:34;19.60;48.50
34776;DHT22;20989;52.566;13.346;2022-12-10T06:50:35;19.60;48.50
34776;DHT22;20989;52.566;13.346;2022-12-10T06:53:37;19.60;48.50
34776;DHT22;20989;52.566;13.346;2022-12-10T06:56:38;19.60;48.60
34776;DHT22;20989;52.566;13.346;2022-12-10T06:59:39;19.60;48.50
34776;DHT22;20989;52.566;13.346;2022-12-10T07:02:39;19.60;48.50
34776;DHT22;20989;52.566;13.346;2022-12-10T07:05:40;19.50;48.50
34776;DHT22;20989;52.566;13.346;2022-12-10T07:08:41;19.60;48.50
34776;DHT22;20989;52.566;13.346;2022-12-10T07:11:42;19.60;48.60
34776;DHT22;20989;52.566;13.346;2022-12-10T07:14:42;19.60;48.50
34776;DHT22;20989;52.566;13.346;2022-12-10T07:17:43;19.50;48.50
34776;DHT22;20989;52.566;13.346;2022-12-10T07:20:44;19.60;48.50
34776;DHT22;20989;52.566;13.346;2022-12-10T07:23:44;19.50;48.50
34776;DHT22;20989;52.566;13.346;2022-12-10T07:26:46;19.50;48.50
34776;DHT22;20989;52.566;13.346;2022-12-10T07:29:47;19.50;48.50
34776;DHT22;20989;52.566;13.346;2022-12-10T07:32:47;19.50;48.50
34776;DHT22;20989;52.566;13.346;2022-12-10T07:35:48;19.50;48.60
34776;DHT22;20989;52.566;13.346;2022-12-10T07:38:52;19.50;48.50
34776;DHT22;20989;52.566;13.346;2022-12-10T07:41:54;19.50;48.50
34776;DHT22;20989;52.566;13.346;2022-12-10T07:44:54;19.50;48.60
34776;DHT22;20989;52.566;13.346;2022-12-10T07:47:55;19.50;48.50
34776;DHT22;20989;52.566;13.346;2022-12-10T07:50:56;19.50;48.50
34776;DHT22;20989;52.566;13.346;2022-12-10T07:53:58;19.50;48.60
34776;DHT22;20989;52.566;13.346;2022-12-10T07:56:58;19.50;48.50
34776;DHT22;20989;52.566;13.346;2022-12-10T07:59:59;19.50;48.60
34776;DHT22;20989;52.566;13.346;2022-12-10T08:03:00;19.50;48.70
34776;DHT22;20989;52.566;13.346;2022-12-10T08:06:06;19.50;48.60
34776;DHT22;20989;52.566;13.346;2022-12-10T08:09:06;19.50;48.60
34776;DHT22;20989;52.566;13.346;2022-12-10T08:12:07;19.50;48.60
34776;DHT22;20989;52.566;13.346;2022-12-10T08:15:10;19.50;48.60
34776;DHT22;20989;52.566;13.346;2022-12-10T08:18:11;19.50;48.70
34776;DHT22;20989;52.566;13.346;2022-12-10T08:21:14;19.50;48.60
34776;DHT22;20989;52.566;13.346;2022-12-10T08:24:15;19.50;48.60
34776;DHT22;20989;52.566;13.346;2022-12-10T08:27:16;19.50;48.70
34776;DHT22;20989;52.566;13.346;2022-12-10T08:30:16;19.50;48.60
34776;DHT22;20989;52.566;13.346;2022-12-10T08:33:17;19.40;48.60
34776;DHT22;20989;52.566;13.346;2022-12-10T08:36:18;19.50;48.60
34776;DHT22;20989;52.566;13.346;2022-12-10T08:39:19;19.40;48.50
34776;DHT22;20989;52.566;13.346;2022-12-10T08:42:20;19.40;48.50
34776;DHT22;20989;52.566;13.346;2022-12-10T08:45:21;19.40;48.60
34776;DHT22;20989;52.566;13.346;2022-12-10T08:48:21;19.50;48.60
34776;DHT22;20989;52.566;13.346;2022-12-10T08:51:25;19.50;48.70
34776;DHT22;20989;52.566;13.346;2022-12-10T08:54:26;19.40;48.60
34776;DHT22;20989;52.566;13.346;2022-12-10T08:57:27;19.40;48.70
34776;DHT22;20989;52.566;13.346;2022-12-10T09:00:27;19.40;48.60
34776;DHT22;20989;52.566;13.346;2022-12-10T09:03:28;19.40;48.70
34776;DHT22;20989;52.566;13.346;2022-12-10T09:06:29;19.50;48.70
34776;DHT22;20989;52.566;13.346;2022-12-10T09:09:31;19.50;48.80
34776;DHT22;20989;52.566;13.346;2022-12-10T09:12:33;19.40;48.60
34776;DHT22;20989;52.566;13.346;2022-12-10T09:15:34;19.50;48.70
34776;DHT22;20989;52.566;13.346;2022-12-10T09:18:35;19.50;48.70
34776;DHT22;20989;52.566;13.346;2022-12-10T09:21:36;19.50;48.70
34776;DHT22;20989;52.566;13.346;2022-12-10T09:24:37;19.50;48.70
34776;DHT22;20989;52.566;13.346;2022-12-10T09:27:37;19.50;48.80
34776;DHT22;20989;52.566;13.346;2022-12-10T09:30:38;19.40;48.70
34776;DHT22;20989;52.566;13.346;2022-12-10T09:33:39;19.40;48.70
34776;DHT22;20989;52.566;13.346;2022-12-10T09:36:40;19.40;48.70
34776;DHT22;20989;52.566;13.346;2022-12-10T09:39:41;19.40;48.70
34776;DHT22;20989;52.566;13.346;2022-12-10T09:46:52;19.50;48.70
34776;DHT22;20989;52.566;13.346;2022-12-10T09:53:03;19.50;48.70
34776;DHT22;20989;52.566;13.346;2022-12-10T09:56:17;19.40;48.70
34776;DHT22;20989;52.566;13.346;2022-12-10T09:59:41;19.50;48.80
34776;DHT22;20989;52.566;13.346;2022-12-10T10:02:42;19.50;48.80
34776;DHT22;20989;52.566;13.346;2022-12-10T10:05:49;19.40;48.70
34776;DHT22;20989;52.566;13.346;2022-12-10T10:08:56;19.50;48.80
34776;DHT22;20989;52.566;13.346;2022-12-10T10:11:57;19.50;48.70
34776;DHT22;20989;52.566;13.346;2022-12-10T10:15:09;19.50;48.70
34776;DHT22;20989;52.566;13.346;2022-12-10T10:18:36;19.60;48.70
34776;DHT22;20989;52.566;13.346;2022-12-10T10:21:43;19.60;48.70
34776;DHT22;20989;52.566;13.346;2022-12-10T10:24:45;19.60;48.70
34776;DHT22;20989;52.566;13.346;2022-12-10T10:27:47;19.60;48.60
34776;DHT22;20989;52.566;13.346;2022-12-10T10:30:48;19.60;48.70
34776;DHT22;20989;52.566;13.346;2022-12-10T10:33:56;19.60;48.70
34776;DHT22;20989;52.566;13.346;2022-12-10T10:36:57;19.60;48.70
34776;DHT22;20989;52.566;13.346;2022-12-10T10:39:58;19.60;48.70
34776;DHT22;20989;52.566;13.346;2022-12-10T10:43:00;19.60;48.60
34776;DHT22;20989;52.566;13.346;2022-12-10T10:46:04;19.60;48.60
34776;DHT22;20989;52.566;13.346;2022-12-10T10:49:28;19.60;48.60
34776;DHT22;20989;52.566;13.346;2022-12-10T10:52:34;19.60;48.60
34776;DHT22;20989;52.566;13.346;2022-12-10T10:55:35;19.60;48.60
34776;DHT22;20989;52.566;13.346;2022-12-10T10:58:50;19.60;48.70
34776;DHT22;20989;52.566;13.346;2022-12-10T11:01:55;19.60;48.80
34776;DHT22;20989;52.566;13.346;2022-12-10T11:04:57;19.60;48.60
34776;DHT22;20989;52.566;13.346;2022-12-10T11:08:06;19.60;48.70
34776;DHT22;20989;52.566;13.346;2022-12-10T11:11:34;19.60;48.70
34776;DHT22;20989;52.566;13.346;2022-12-10T11:14:40;19.50;48.70
34776;DHT22;20989;52.566;13.346;2022-12-10T11:17:47;19.60;48.80
34776;DHT22;20989;52.566;13.346;2022-12-10T11:21:15;19.50;48.70
34776;DHT22;20989;52.566;13.346;2022-12-10T11:24:18;19.50;48.70
34776;DHT22;20989;52.566;13.346;2022-12-10T11:37:31;19.50;48.70
34776;DHT22;20989;52.566;13.346;2022-12-10T11:40:49;19.50;48.60
34776;DHT22;20989;52.566;13.346;2022-12-10T11:51:35;19.70;47.60
34776;DHT22;20989;52.566;13.346;2022-12-10T12:11:32;20.20;47.80
34776;DHT22;20989;52.566;13.346;2022-12-10T12:14:49;20.20;47.70
34776;DHT22;20989;52.566;13.346;2022-12-10T12:21:12;20.20;47.90
34776;DHT22;20989;52.566;13.346;2022-12-10T12:24:21;20.20;47.90
34776;DHT22;20989;52.566;13.346;2022-12-10T12:27:39;20.30;47.80
34776;DHT22;20989;52.566;13.346;2022-12-10T12:30:44;20.30;48.00
34776;DHT22;20989;52.566;13.346;2022-12-10T12:34:05;20.40;47.80
34776;DHT22;20989;52.566;13.346;2022-12-10T12:37:12;20.40;47.90
34776;DHT22;20989;52.566;13.346;2022-12-10T12:40:20;20.40;48.40
34776;DHT22;20989;52.566;13.346;2022-12-10T12:46:43;20.40;47.60
34776;DHT22;20989;52.566;13.346;2022-12-10T12:49:44;20.40;47.30
34776;DHT22;20989;52.566;13.346;2022-12-10T12:52:55;20.40;47.70
34776;DHT22;20989;52.566;13.346;2022-12-10T12:59:30;20.20;47.10
34776;DHT22;20989;52.566;13.346;2022-12-10T13:05:42;20.10;46.30
34776;DHT22;20989;52.566;13.346;2022-12-10T13:15:21;20.30;46.40
34776;DHT22;20989;52.566;13.346;2022-12-10T13:18:42;20.30;46.80
34776;DHT22;20989;52.566;13.346;2022-12-10T13:25:16;20.30;47.00
34776;DHT22;20989;52.566;13.346;2022-12-10T13:28:29;20.50;46.60
34776;DHT22;20989;52.566;13.346;2022-12-10T13:34:36;20.40;47.30
34776;DHT22;20989;52.566;13.346;2022-12-10T13:38:03;20.50;47.40
34776;DHT22;20989;52.566;13.346;2022-12-10T13:41:05;20.50;47.40
34776;DHT22;20989;52.566;13.346;2022-12-10T13:44:34;20.40;47.60
34776;DHT22;20989;52.566;13.346;2022-12-10T13:48:15;20.40;47.60
34776;DHT22;20989;52.566;13.346;2022-12-10T13:51:20;20.50;47.60
34776;DHT22;20989;52.566;13.346;2022-12-10T14:07:50;20.40;47.90
34776;DHT22;20989;52.566;13.346;2022-12-10T14:10:54;20.40;47.90
34776;DHT22;20989;52.566;13.346;2022-12-10T14:13:58;20.40;47.90
34776;DHT22;20989;52.566;13.346;2022-12-10T14:17:11;20.40;48.00
34776;DHT22;20989;52.566;13.346;2022-12-10T14:20:18;20.40;48.00
34776;DHT22;20989;52.566;13.346;2022-12-10T14:23:30;20.50;47.90
34776;DHT22;20989;52.566;13.346;2022-12-10T14:26:36;20.50;48.00
34776;DHT22;20989;52.566;13.346;2022-12-10T14:29:37;20.50;47.90
34776;DHT22;20989;52.566;13.346;2022-12-10T14:32:38;20.50;48.10
34776;DHT22;20989;52.566;13.346;2022-12-10T14:35:40;20.50;48.10
34776;DHT22;20989;52.566;13.346;2022-12-10T14:38:42;20.50;48.10
34776;DHT22;20989;52.566;13.346;2022-12-10T14:41:47;20.50;48.10
34776;DHT22;20989;52.566;13.346;2022-12-10T14:44:57;20.50;47.90
34776;DHT22;20989;52.566;13.346;2022-12-10T14:48:00;20.50;48.20
34776;DHT22;20989;52.566;13.346;2022-12-10T14:51:04;20.50;48.20
34776;DHT22;20989;52.566;13.346;2022-12-10T14:54:28;20.50;48.20
34776;DHT22;20989;52.566;13.346;2022-12-10T14:57:35;20.50;48.30
34776;DHT22;20989;52.566;13.346;2022-12-10T15:00:40;20.50;48.20
34776;DHT22;20989;52.566;13.346;2022-12-10T15:03:44;20.40;48.40
34776;DHT22;20989;52.566;13.346;2022-12-10T15:06:47;20.40;48.90
34776;DHT22;20989;52.566;13.346;2022-12-10T15:09:49;20.50;48.40
34776;DHT22;20989;52.566;13.346;2022-12-10T15:12:50;20.40;48.40
34776;DHT22;20989;52.566;13.346;2022-12-10T15:15:53;20.40;48.60
34776;DHT22;20989;52.566;13.346;2022-12-10T15:18:54;20.50;48.50
34776;DHT22;20989;52.566;13.346;2022-12-10T15:25:14;20.50;48.40
34776;DHT22;20989;52.566;13.346;2022-12-10T15:28:28;20.50;48.40
34776;DHT22;20989;52.566;13.346;2022-12-10T15:31:31;20.60;48.40
34776;DHT22;20989;52.566;13.346;2022-12-10T15:34:53;20.50;48.30
34776;DHT22;20989;52.566;13.346;2022-12-10T15:37:54;20.50;48.40
34776;DHT22;20989;52.566;13.346;2022-12-10T15:40:58;20.50;48.50
34776;DHT22;20989;52.566;13.346;2022-12-10T15:44:27;20.50;48.50
34776;DHT22;20989;52.566;13.346;2022-12-10T15:47:27;20.60;48.50
34776;DHT22;20989;52.566;13.346;2022-12-10T15:50:29;20.60;48.30
34776;DHT22;20989;52.566;13.346;2022-12-10T15:53:36;20.60;48.20
34776;DHT22;20989;52.566;13.346;2022-12-10T15:56:38;20.50;48.30
34776;DHT22;20989;52.566;13.346;2022-12-10T15:59:38;20.50;48.40
34776;DHT22;20989;52.566;13.346;2022-12-10T16:05:47;20.50;48.20
34776;DHT22;20989;52.566;13.346;2022-12-10T16:08:49;20.50;48.30
34776;DHT22;20989;52.566;13.346;2022-12-10T16:11:50;20.50;48.30
34776;DHT22;20989;52.566;13.346;2022-12-10T16:14:53;20.60;48.30
34776;DHT22;20989;52.566;13.346;2022-12-10T16:18:00;20.50;48.30
34776;DHT22;20989;52.566;13.346;2022-12-10T16:21:00;20.50;48.40
34776;DHT22;20989;52.566;13.346;2022-12-10T16:24:01;20.50;48.40
34776;DHT22;20989;52.566;13.346;2022-12-10T16:27:10;20.50;48.50
34776;DHT22;20989;52.566;13.346;2022-12-10T16:30:14;20.50;48.50
34776;DHT22;20989;52.566;13.346;2022-12-10T16:33:17;20.60;48.20
34776;DHT22;20989;52.566;13.346;2022-12-10T16:36:18;20.60;48.40
34776;DHT22;20989;52.566;13.346;2022-12-10T16:39:19;20.60;48.30
34776;DHT22;20989;52.566;13.346;2022-12-10T16:42:20;20.60;48.30
34776;DHT22;20989;52.566;13.346;2022-12-10T16:45:27;20.60;48.50
34776;DHT22;20989;52.566;13.346;2022-12-10T16:48:28;20.70;48.20
34776;DHT22;20989;52.566;13.346;2022-12-10T16:51:29;20.70;48.00
34776;DHT22;20989;52.566;13.346;2022-12-10T16:54:30;20.70;48.40
34776;DHT22;20989;52.566;13.346;2022-12-10T16:57:31;20.70;48.10
34776;DHT22;20989;52.566;13.346;2022-12-10T17:00:31;20.50;48.40
34776;DHT22;20989;52.566;13.346;2022-12-10T17:03:32;20.60;48.30
34776;DHT22;20989;52.566;13.346;2022-12-10T17:06:34;20.60;48.10
34776;DHT22;20989;52.566;13.346;2022-12-10T17:09:37;20.60;48.10
34776;DHT22;20989;52.566;13.346;2022-12-10T17:12:38;20.60;48.30
34776;DHT22;20989;52.566;13.346;2022-12-10T17:15:40;20.60;48.20
34776;DHT22;20989;52.566;13.346;2022-12-10T17:18:41;20.60;48.20
34776;DHT22;20989;52.566;13.346;2022-12-10T17:21:42;20.70;48.30
34776;DHT22;20989;52.566;13.346;2022-12-10T17:24:43;20.70;48.20
34776;DHT22;20989;52.566;13.346;2022-12-10T17:27:44;20.70;48.10
34776;DHT22;20989;52.566;13.346;2022-12-10T17:30:45;20.70;48.10
34776;DHT22;20989;52.566;13.346;2022-12-10T17:33:46;20.70;48.10
34776;DHT22;20989;52.566;13.346;2022-12-10T17:36:46;20.60;48.10
34776;DHT22;20989;52.566;13.346;2022-12-10T17:39:47;20.70;48.20
34776;DHT22;20989;52.566;13.346;2022-12-10T17:42:49;20.70;48.00
34776;DHT22;20989;52.566;13.346;2022-12-10T17:45:50;20.70;48.10
34776;DHT22;20989;52.566;13.346;2022-12-10T17:48:52;20.50;48.50
34776;DHT22;20989;52.566;13.346;2022-12-10T17:51:53;20.60;48.50
34776;DHT22;20989;52.566;13.346;2022-12-10T17:54:59;20.30;47.90
34776;DHT22;20989;52.566;13.346;2022-12-10T17:58:00;20.30;48.00
34776;DHT22;20989;52.566;13.346;2022-12-10T18:01:00;20.30;48.40
34776;DHT22;20989;52.566;13.346;2022-12-10T18:04:01;20.20;48.00
34776;DHT22;20989;52.566;13.346;2022-12-10T18:07:02;20.20;48.20
34776;DHT22;20989;52.566;13.346;2022-12-10T18:10:09;20.20;48.70
34776;DHT22;20989;52.566;13.346;2022-12-10T18:13:12;20.20;48.60
34776;DHT22;20989;52.566;13.346;2022-12-10T18:16:16;20.10;48.40
34776;DHT22;20989;52.566;13.346;2022-12-10T18:19:17;20.10;48.50
34776;DHT22;20989;52.566;13.346;2022-12-10T18:22:18;20.10;48.40
34776;DHT22;20989;52.566;13.346;2022-12-10T18:25:20;20.10;48.50
34776;DHT22;20989;52.566;13.346;2022-12-10T18:31:28;20.10;48.70
34776;DHT22;20989;52.566;13.346;2022-12-10T18:34:29;20.00;48.80
34776;DHT22;20989;52.566;13.346;2022-12-10T18:37:29;20.10;49.10
34776;DHT22;20989;52.566;13.346;2022-12-10T18:40:30;20.00;48.70
34776;DHT22;20989;52.566;13.346;2022-12-10T18:43:31;20.00;48.80
34776;DHT22;20989;52.566;13.346;2022-12-10T18:46:33;20.00;48.80
34776;DHT22;20989;52.566;13.346;2022-12-10T18:49:37;20.00;48.80
34776;DHT22;20989;52.566;13.346;2022-12-10T18:52:37;20.10;49.30
34776;DHT22;20989;52.566;13.346;2022-12-10T18:55:38;20.00;48.70
34776;DHT22;20989;52.566;13.346;2022-12-10T18:58:39;20.00;48.80
34776;DHT22;20989;52.566;13.346;2022-12-10T19:01:39;20.00;48.90
34776;DHT22;20989;52.566;13.346;2022-12-10T19:04:40;20.00;48.60
34776;DHT22;20989;52.566;13.346;2022-12-10T19:07:42;20.00;48.80
34776;DHT22;20989;52.566;13.346;2022-12-10T19:10:43;20.00;49.10
34776;DHT22;20989;52.566;13.346;2022-12-10T19:13:44;20.00;49.00
34776;DHT22;20989;52.566;13.346;2022-12-10T19:16:46;20.00;49.00
34776;DHT22;20989;52.566;13.346;2022-12-10T19:19:47;20.00;49.10
34776;DHT22;20989;52.566;13.346;2022-12-10T19:22:48;19.90;49.10
34776;DHT22;20989;52.566;13.346;2022-12-10T19:25:49;19.90;49.00
34776;DHT22;20989;52.566;13.346;2022-12-10T19:28:49;19.90;49.00
34776;DHT22;20989;52.566;13.346;2022-12-10T19:31:50;19.90;49.00
34776;DHT22;20989;52.566;13.346;2022-12-10T19:34:51;19.90;49.30
34776;DHT22;20989;52.566;13.346;2022-12-10T19:37:52;19.90;48.80
34776;DHT22;20989;52.566;13.346;2022-12-10T19:40:53;19.90;48.80
34776;DHT22;20989;52.566;13.346;2022-12-10T19:43:54;19.90;48.90
34776;DHT22;20989;52.566;13.346;2022-12-10T19:46:55;19.80;49.10
34776;DHT22;20989;52.566;13.346;2022-12-10T19:49:55;19.80;48.80
34776;DHT22;20989;52.566;13.346;2022-12-10T19:52:56;19.70;49.00
34776;DHT22;20989;52.566;13.346;2022-12-10T19:55:58;19.70;49.20
34776;DHT22;20989;52.566;13.346;2022-12-10T19:59:02;19.70;48.60
34776;DHT22;20989;52.566;13.346;2022-12-10T20:02:03;19.70;48.90
34776;DHT22;20989;52.566;13.346;2022-12-10T20:05:05;19.70;49.20
34776;DHT22;20989;52.566;13.346;2022-12-10T20:08:05;19.70;48.70
34776;DHT22;20989;52.566;13.346;2022-12-10T20:11:06;19.70;48.90
34776;DHT22;20989;52.566;13.346;2022-12-10T20:14:07;19.70;49.10
34776;DHT22;20989;52.566;13.346;2022-12-10T20:17:09;19.70;48.70
34776;DHT22;20989;52.566;13.346;2022-12-10T20:23:16;19.70;49.00
34776;DHT22;20989;52.566;13.346;2022-12-10T20:29:22;19.70;48.80
34776;DHT22;20989;52.566;13.346;2022-12-10T20:32:23;19.60;48.70
34776;DHT22;20989;52.566;13.346;2022-12-10T20:35:24;19.60;48.70
34776;DHT22;20989;52.566;13.346;2022-12-10T20:38:26;19.60;48.60
34776;DHT22;20989;52.566;13.346;2022-12-10T20:41:26;19.60;48.70
34776;DHT22;20989;52.566;13.346;2022-12-10T20:44:27;19.60;48.70
34776;DHT22;20989;52.566;13.346;2022-12-10T20:47:28;19.60;49.10
34776;DHT22;20989;52.566;13.346;2022-12-10T20:50:28;19.60;48.50
34776;DHT22;20989;52.566;13.346;2022-12-10T20:53:29;19.60;48.60
34776;DHT22;20989;52.566;13.346;2022-12-10T20:56:30;19.60;49.10